createdAt,value
2018-05-29T00:02:04.891Z,7.70
2018-05-29T00:04:32.407Z,7.00
2018-05-29T00:06:59.924Z,6.80
2018-05-29T00:09:27.425Z,6.90
2018-05-29T00:11:54.938Z,6.63
2018-05-29T00:14:22.440Z,6.13
2018-05-29T00:16:49.946Z,6.40
2018-05-29T00:19:17.450Z,6.90
2018-05-29T00:21:44.988Z,6.77
2018-05-29T00:24:12.500Z,7.13
2018-05-29T00:26:40.005Z,7.73
2018-05-29T00:29:07.526Z,7.47
2018-05-29T00:31:35.032Z,7.17
2018-05-29T00:34:02.545Z,6.67
2018-05-29T00:36:30.051Z,6.73
2018-05-29T00:38:57.570Z,6.53
2018-05-29T00:41:25.080Z,6.90
2018-05-29T00:43:52.579Z,6.87
2018-05-29T00:46:20.084Z,6.83
2018-05-29T00:48:47.580Z,6.90
2018-05-29T00:51:15.081Z,6.50
2018-05-29T00:53:42.604Z,6.10
2018-05-29T00:56:10.108Z,6.10
2018-05-29T00:58:37.619Z,6.60
2018-05-29T01:01:05.122Z,6.50
2018-05-29T01:03:32.650Z,6.77
2018-05-29T01:06:00.149Z,6.50
2018-05-29T01:08:27.651Z,6.47
2018-05-29T01:10:55.158Z,6.40
2018-05-29T01:13:22.663Z,6.60
2018-05-29T01:15:50.171Z,6.90
2018-05-29T01:18:17.684Z,6.20
2018-05-29T01:20:45.255Z,6.70
2018-05-29T01:23:12.760Z,6.73
2018-05-29T01:25:40.281Z,6.63
2018-05-29T01:28:07.774Z,6.97
2018-05-29T01:30:35.315Z,6.90
2018-05-29T01:33:02.890Z,6.03
2018-05-29T01:35:30.401Z,6.70
2018-05-29T01:37:57.918Z,6.20
2018-05-29T01:40:25.424Z,6.53
2018-05-29T01:42:52.931Z,7.03
2018-05-29T01:45:20.435Z,6.97
2018-05-29T01:47:47.952Z,7.03
2018-05-29T01:50:15.499Z,7.47
2018-05-29T01:52:43.010Z,6.53
2018-05-29T01:55:10.520Z,6.87
2018-05-29T01:57:38.079Z,6.93
2018-05-29T02:00:06.495Z,7.10
2018-05-29T02:02:34.011Z,6.43
2018-05-29T02:05:01.556Z,6.30
2018-05-29T02:07:29.058Z,7.27
2018-05-29T02:09:56.559Z,6.20
2018-05-29T02:12:24.094Z,6.33
2018-05-29T02:14:51.598Z,5.80
2018-05-29T02:17:19.111Z,5.57
2018-05-29T02:19:46.608Z,5.80
2018-05-29T02:22:31.700Z,6.10
2018-05-29T02:24:59.271Z,5.47
2018-05-29T02:27:26.784Z,5.80
2018-05-29T02:29:54.295Z,5.30
2018-05-29T02:32:21.796Z,5.27
2018-05-29T02:34:49.300Z,6.30
2018-05-29T02:37:16.794Z,5.50
2018-05-29T02:39:44.305Z,5.90
2018-05-29T02:42:11.812Z,5.67
2018-05-29T02:44:39.311Z,5.33
2018-05-29T02:47:06.812Z,5.83
2018-05-29T02:49:34.312Z,5.63
2018-05-29T02:52:01.811Z,6.40
2018-05-29T02:54:29.320Z,6.17
2018-05-29T02:56:57.714Z,6.17
2018-05-29T02:59:25.234Z,5.77
2018-05-29T03:01:52.800Z,6.30
2018-05-29T03:04:20.318Z,7.17
2018-05-29T03:06:47.828Z,6.43
2018-05-29T03:09:15.328Z,6.03
2018-05-29T03:11:42.848Z,6.20
2018-05-29T03:14:10.399Z,6.73
2018-05-29T03:16:37.917Z,6.77
2018-05-29T03:19:05.466Z,6.67
2018-05-29T03:21:32.963Z,6.03
2018-05-29T03:24:00.472Z,6.50
2018-05-29T03:26:28.011Z,6.57
2018-05-29T03:28:55.520Z,5.97
2018-05-29T03:31:23.029Z,6.13
2018-05-29T03:33:50.584Z,6.50
2018-05-29T03:36:18.115Z,7.47
2018-05-29T03:38:45.622Z,6.70
2018-05-29T03:41:13.128Z,6.27
2018-05-29T03:43:40.627Z,6.10
2018-05-29T03:46:08.135Z,7.60
2018-05-29T03:48:35.629Z,6.63
2018-05-29T03:51:03.144Z,7.33
2018-05-29T03:53:30.679Z,6.70
2018-05-29T03:55:58.200Z,7.23
2018-05-29T03:58:25.711Z,7.10
2018-05-29T04:00:53.215Z,7.13
2018-05-29T04:03:20.724Z,6.50
2018-05-29T04:05:48.285Z,6.97
2018-05-29T04:08:15.795Z,9.00
2018-05-29T04:10:43.301Z,7.03
2018-05-29T04:13:10.851Z,7.53
2018-05-29T04:15:38.363Z,8.00
2018-05-29T04:18:05.893Z,7.67
2018-05-29T04:20:33.405Z,7.70
2018-05-29T04:23:00.902Z,8.23
2018-05-29T04:25:28.407Z,6.97
2018-05-29T04:27:56.194Z,8.70
2018-05-29T04:30:23.714Z,7.87
2018-05-29T04:32:51.215Z,7.90
2018-05-29T04:35:18.728Z,6.87
2018-05-29T04:37:46.291Z,7.03
2018-05-29T04:40:13.831Z,7.80
2018-05-29T04:42:41.344Z,7.37
2018-05-29T04:45:08.855Z,6.30
2018-05-29T04:47:36.375Z,6.93
2018-05-29T04:50:03.891Z,6.77
2018-05-29T04:52:31.405Z,7.30
2018-05-29T04:54:58.965Z,7.43
2018-05-29T04:57:26.479Z,6.83
2018-05-29T04:59:53.995Z,8.37
2018-05-29T05:02:21.503Z,8.43
2018-05-29T05:04:49.043Z,7.53
2018-05-29T05:07:16.552Z,8.13
2018-05-29T05:09:44.121Z,7.97
2018-05-29T05:12:11.667Z,7.27
2018-05-29T05:14:39.171Z,8.40
2018-05-29T05:17:06.695Z,8.00
2018-05-29T05:19:34.199Z,8.57
2018-05-29T05:22:01.714Z,8.53
2018-05-29T05:24:29.210Z,7.43
2018-05-29T05:26:56.725Z,9.30
2018-05-29T05:29:24.229Z,8.57
2018-05-29T05:31:51.744Z,7.53
2018-05-29T05:34:19.243Z,8.30
2018-05-29T05:36:46.742Z,7.40
2018-05-29T05:39:14.261Z,8.17
2018-05-29T05:41:41.771Z,7.93
2018-05-29T05:44:09.276Z,8.10
2018-05-29T05:46:37.570Z,8.20
2018-05-29T05:49:05.123Z,8.03
2018-05-29T05:51:32.642Z,9.00
2018-05-29T05:54:00.193Z,8.27
2018-05-29T05:56:27.703Z,9.25
2018-05-29T05:58:55.220Z,8.48
2018-05-29T06:01:22.730Z,8.38
2018-05-29T06:03:50.235Z,6.75
2018-05-29T06:06:17.749Z,7.22
2018-05-29T06:08:45.256Z,7.60
2018-05-29T06:11:12.972Z,8.35
2018-05-29T06:13:40.495Z,8.25
2018-05-29T06:16:08.011Z,8.40
2018-05-29T06:18:35.520Z,7.55
2018-05-29T06:21:03.035Z,7.43
2018-05-29T06:23:30.538Z,6.57
2018-05-29T06:25:58.086Z,6.68
2018-05-29T06:28:26.696Z,5.68
2018-05-29T06:30:54.240Z,6.12
2018-05-29T06:33:21.791Z,6.07
2018-05-29T06:35:49.317Z,6.20
2018-05-29T06:38:16.915Z,5.78
2018-05-29T06:40:44.445Z,4.75
2018-05-29T06:43:11.959Z,4.72
2018-05-29T06:45:39.504Z,5.20
2018-05-29T06:48:07.125Z,5.07
2018-05-29T06:50:34.673Z,4.93
2018-05-29T06:53:02.219Z,3.65
2018-05-29T06:55:29.748Z,4.50
2018-05-29T06:57:57.570Z,3.75
2018-05-29T07:00:25.552Z,5.25
2018-05-29T07:02:53.100Z,4.53
2018-05-29T07:05:20.865Z,4.60
2018-05-29T07:07:48.574Z,4.10
2018-05-29T07:10:16.113Z,3.90
2018-05-29T07:12:43.645Z,4.40
2018-05-29T07:15:11.202Z,4.97
2018-05-29T07:17:38.711Z,5.40
2018-05-29T07:20:06.240Z,5.00
2018-05-29T07:22:34.198Z,4.72
2018-05-29T07:25:01.742Z,5.10
2018-05-29T07:27:29.314Z,5.35
2018-05-29T07:29:56.836Z,5.50
2018-05-29T07:32:24.370Z,5.57
2018-05-29T07:34:51.915Z,4.97
2018-05-29T07:37:19.429Z,5.95
2018-05-29T07:39:46.960Z,6.03
2018-05-29T07:42:14.563Z,5.90
2018-05-29T07:44:42.159Z,5.85
2018-05-29T07:47:09.702Z,6.22
2018-05-29T07:49:37.238Z,6.03
2018-05-29T07:52:04.816Z,6.03
2018-05-29T07:54:32.364Z,5.12
2018-05-29T07:56:59.908Z,5.15
2018-05-29T07:59:27.419Z,5.50
2018-05-29T08:01:54.927Z,5.47
2018-05-29T08:04:22.472Z,5.25
2018-05-29T08:06:50.025Z,5.22
2018-05-29T08:09:17.574Z,4.75
2018-05-29T08:11:45.088Z,4.30
2018-05-29T08:14:12.596Z,4.07
2018-05-29T08:16:40.213Z,5.97
2018-05-29T08:19:07.850Z,5.40
2018-05-29T08:21:35.368Z,4.47
2018-05-29T08:24:02.879Z,4.80
2018-05-29T08:26:30.498Z,3.80
2018-05-29T08:28:58.024Z,3.33
2018-05-29T08:31:25.634Z,3.55
2018-05-29T08:33:53.186Z,3.28
2018-05-29T08:36:20.869Z,3.47
2018-05-29T08:38:48.446Z,3.40
2018-05-29T08:41:16.096Z,3.10
2018-05-29T08:43:43.627Z,3.08
2018-05-29T08:46:11.139Z,3.58
2018-05-29T08:48:38.648Z,3.65
2018-05-29T08:51:06.273Z,4.68
2018-05-29T08:53:33.815Z,3.40
2018-05-29T08:56:01.430Z,3.60
2018-05-29T08:58:29.058Z,3.17
2018-05-29T09:00:57.006Z,3.40
2018-05-29T09:03:24.504Z,3.00
2018-05-29T09:05:52.114Z,3.45
2018-05-29T09:08:19.748Z,2.97
2018-05-29T09:10:47.432Z,3.60
2018-05-29T09:13:14.961Z,3.20
2018-05-29T09:15:42.566Z,3.50
2018-05-29T09:18:10.189Z,3.65
2018-05-29T09:20:37.876Z,3.53
2018-05-29T09:23:05.514Z,3.28
2018-05-29T09:25:33.083Z,3.33
2018-05-29T09:28:00.698Z,3.62
2018-05-29T09:30:28.265Z,4.15
2018-05-29T09:32:55.928Z,3.50
2018-05-29T09:35:23.609Z,3.35
2018-05-29T09:37:51.133Z,3.58
2018-05-29T09:40:18.782Z,3.40
2018-05-29T09:42:46.429Z,3.58
2018-05-29T09:45:14.066Z,3.37
2018-05-29T09:47:41.601Z,3.40
2018-05-29T09:50:09.116Z,3.45
2018-05-29T09:52:36.630Z,3.42
2018-05-29T09:55:04.240Z,3.90
2018-05-29T09:57:31.865Z,3.03
2018-05-29T09:59:59.545Z,3.30
2018-05-29T10:02:27.215Z,3.83
2018-05-29T10:04:54.752Z,3.90
2018-05-29T10:07:22.358Z,3.30
2018-05-29T10:09:49.980Z,3.45
2018-05-29T10:12:17.507Z,3.37
2018-05-29T10:14:45.120Z,3.40
2018-05-29T10:17:12.657Z,3.87
2018-05-29T10:19:40.261Z,3.40
2018-05-29T10:22:07.799Z,3.58
2018-05-29T10:24:35.327Z,3.50
2018-05-29T10:27:02.825Z,4.22
2018-05-29T10:29:30.433Z,3.47
2018-05-29T10:31:58.058Z,3.62
2018-05-29T10:34:25.587Z,4.70
2018-05-29T10:36:53.108Z,3.67
2018-05-29T10:39:20.623Z,4.03
2018-05-29T10:41:48.132Z,3.85
2018-05-29T10:44:15.638Z,3.83
2018-05-29T10:46:43.254Z,3.75
2018-05-29T10:49:10.912Z,4.35
2018-05-29T10:51:38.545Z,3.70
2018-05-29T10:54:06.177Z,3.80
2018-05-29T10:56:33.794Z,3.60
2018-05-29T10:59:01.423Z,4.65
2018-05-29T11:01:28.969Z,4.60
2018-05-29T11:03:56.577Z,4.12
2018-05-29T11:06:24.212Z,3.95
2018-05-29T11:08:51.739Z,4.82
2018-05-29T11:11:19.255Z,3.60
2018-05-29T11:13:46.758Z,4.20
2018-05-29T11:16:14.265Z,4.12
2018-05-29T11:18:41.806Z,4.60
2018-05-29T11:21:09.310Z,3.70
2018-05-29T11:23:37.580Z,4.05
2018-05-29T11:26:05.085Z,3.40
2018-05-29T11:28:32.607Z,4.05
2018-05-29T11:31:00.112Z,3.35
2018-05-29T11:33:27.617Z,3.50
2018-05-29T11:35:55.124Z,3.30
2018-05-29T11:38:22.613Z,3.25
2018-05-29T11:40:50.115Z,3.60
2018-05-29T11:43:17.635Z,4.17
2018-05-29T11:45:45.169Z,3.30
2018-05-29T11:48:12.726Z,3.50
2018-05-29T11:50:40.239Z,3.75
2018-05-29T11:53:07.823Z,5.03
2018-05-29T11:55:35.328Z,3.72
2018-05-29T11:58:02.839Z,4.70
2018-05-29T12:00:30.369Z,3.70
2018-05-29T12:02:57.851Z,3.25
2018-05-29T12:05:25.355Z,3.80
2018-05-29T12:07:52.864Z,4.00
2018-05-29T12:10:20.370Z,3.33
2018-05-29T12:12:47.871Z,4.45
2018-05-29T12:15:15.390Z,4.18
2018-05-29T12:17:42.888Z,4.00
2018-05-29T12:20:10.387Z,3.70
2018-05-29T12:22:37.892Z,3.90
2018-05-29T12:25:05.409Z,4.07
2018-05-29T12:27:32.919Z,3.70
2018-05-29T12:30:00.436Z,3.50
2018-05-29T12:32:27.956Z,3.67
2018-05-29T12:34:55.479Z,3.97
2018-05-29T12:37:22.978Z,4.87
2018-05-29T12:39:50.532Z,4.57
2018-05-29T12:42:18.041Z,3.77
2018-05-29T12:44:45.566Z,3.53
2018-05-29T12:47:13.061Z,4.33
2018-05-29T12:49:40.555Z,4.50
2018-05-29T12:52:08.048Z,4.10
2018-05-29T12:54:35.546Z,6.10
2018-05-29T12:57:03.057Z,4.60
2018-05-29T12:59:30.555Z,5.33
2018-05-29T13:01:58.051Z,4.83
2018-05-29T13:04:25.605Z,4.13
2018-05-29T13:06:53.167Z,4.70
2018-05-29T13:09:20.671Z,5.13
2018-05-29T13:11:48.170Z,4.30
2018-05-29T13:14:15.684Z,4.22
2018-05-29T13:16:43.252Z,6.15
2018-05-29T13:19:10.809Z,4.22
2018-05-29T13:21:38.378Z,4.00
2018-05-29T13:24:05.886Z,4.43
2018-05-29T13:26:33.397Z,4.35
2018-05-29T13:29:00.912Z,4.50
2018-05-29T13:31:28.410Z,4.00
2018-05-29T13:33:55.915Z,4.97
2018-05-29T13:36:23.406Z,4.62
2018-05-29T13:38:50.912Z,5.25
2018-05-29T13:41:18.639Z,4.93
2018-05-29T13:43:46.148Z,4.60
2018-05-29T13:46:13.656Z,3.97
2018-05-29T13:48:41.170Z,4.00
2018-05-29T13:51:08.674Z,4.67
2018-05-29T13:53:36.177Z,4.37
2018-05-29T13:56:03.693Z,4.17
2018-05-29T13:58:31.208Z,5.13
2018-05-29T14:00:58.732Z,5.93
2018-05-29T14:03:26.269Z,4.80
2018-05-29T14:05:53.810Z,4.20
2018-05-29T14:08:21.308Z,4.37
2018-05-29T14:10:48.823Z,5.50
2018-05-29T14:13:16.384Z,4.60
2018-05-29T14:15:43.890Z,4.13
2018-05-29T14:18:11.400Z,5.10
2018-05-29T14:20:38.899Z,6.23
2018-05-29T14:23:06.410Z,5.03
2018-05-29T14:25:33.917Z,5.40
2018-05-29T14:28:01.410Z,4.23
2018-05-29T14:30:28.970Z,4.90
2018-05-29T14:32:56.472Z,5.30
2018-05-29T14:35:23.992Z,13.13
2018-05-29T14:37:51.499Z,5.17
2018-05-29T14:40:19.003Z,5.03
2018-05-29T14:42:46.530Z,4.33
2018-05-29T14:45:14.176Z,4.33
2018-05-29T14:47:41.898Z,4.03
2018-05-29T14:50:09.404Z,4.30
2018-05-29T14:52:36.894Z,4.07
2018-05-29T14:55:04.398Z,4.20
2018-05-29T14:57:31.946Z,4.63
2018-05-29T14:59:59.583Z,5.37
2018-05-29T15:02:27.084Z,5.30
2018-05-29T15:04:54.599Z,5.77
2018-05-29T15:07:22.106Z,5.60
2018-05-29T15:09:49.626Z,5.77
2018-05-29T15:12:17.181Z,4.30
2018-05-29T15:14:44.709Z,4.23
2018-05-29T15:17:12.300Z,4.60
2018-05-29T15:19:39.824Z,4.90
2018-05-29T15:22:07.317Z,4.40
2018-05-29T15:24:34.825Z,6.70
2018-05-29T15:27:02.341Z,4.63
2018-05-29T15:29:29.840Z,5.23
2018-05-29T15:31:57.347Z,5.10
2018-05-29T15:34:24.882Z,6.03
2018-05-29T15:36:52.469Z,4.60
2018-05-29T15:39:20.026Z,6.20
2018-05-29T15:41:47.586Z,7.93
2018-05-29T15:44:15.087Z,5.90
2018-05-29T15:46:42.612Z,5.53
2018-05-29T15:49:10.164Z,5.70
2018-05-29T15:51:37.670Z,7.87
2018-05-29T15:54:05.188Z,6.87
2018-05-29T15:56:32.689Z,6.03
2018-05-29T15:59:00.179Z,4.90
2018-05-29T16:01:27.693Z,5.83
2018-05-29T16:03:55.214Z,5.50
2018-05-29T16:06:22.719Z,5.80
2018-05-29T16:08:50.225Z,6.17
2018-05-29T16:11:18.069Z,5.13
2018-05-29T16:13:45.547Z,5.40
2018-05-29T16:16:13.044Z,5.33
2018-05-29T16:18:40.549Z,5.67
2018-05-29T16:21:08.056Z,5.13
2018-05-29T16:23:35.561Z,5.47
2018-05-29T16:26:03.115Z,5.23
2018-05-29T16:28:30.632Z,5.40
2018-05-29T16:30:58.138Z,5.00
2018-05-29T16:33:25.650Z,5.30
2018-05-29T16:35:53.169Z,6.20
2018-05-29T16:38:20.679Z,5.83
2018-05-29T16:40:48.243Z,5.50
2018-05-29T16:43:15.756Z,5.87
2018-05-29T16:45:43.304Z,5.83
2018-05-29T16:48:10.807Z,6.03
2018-05-29T16:50:38.339Z,5.00
2018-05-29T16:53:05.859Z,6.40
2018-05-29T16:55:33.362Z,6.23
2018-05-29T16:58:00.863Z,6.00
2018-05-29T17:00:28.408Z,5.30
2018-05-29T17:02:55.909Z,5.60
2018-05-29T17:05:23.430Z,5.30
2018-05-29T17:07:50.994Z,7.83
2018-05-29T17:10:18.502Z,5.87
2018-05-29T17:12:45.997Z,5.40
2018-05-29T17:15:13.606Z,6.10
2018-05-29T17:17:41.069Z,5.87
2018-05-29T17:20:08.575Z,4.60
2018-05-29T17:22:36.101Z,4.50
2018-05-29T17:25:03.613Z,5.47
2018-05-29T17:27:31.123Z,4.67
2018-05-29T17:29:58.662Z,4.30
2018-05-29T17:32:26.152Z,4.57
2018-05-29T17:34:53.661Z,4.30
2018-05-29T17:37:21.856Z,4.10
2018-05-29T17:39:49.367Z,4.90
2018-05-29T17:42:16.884Z,4.00
2018-05-29T17:44:44.418Z,4.37
2018-05-29T17:47:11.919Z,3.83
2018-05-29T17:49:39.431Z,4.63
2018-05-29T17:52:06.935Z,3.97
2018-05-29T17:54:34.434Z,4.07
2018-05-29T17:57:02.043Z,4.00
2018-05-29T17:59:29.543Z,4.17
2018-05-29T18:01:57.060Z,3.80
2018-05-29T18:04:24.590Z,4.33
2018-05-29T18:06:52.153Z,3.90
2018-05-29T18:09:19.671Z,3.77
2018-05-29T18:11:47.182Z,3.63
2018-05-29T18:14:14.688Z,8.20
2018-05-29T18:16:42.189Z,3.80
2018-05-29T18:19:09.730Z,4.20
2018-05-29T18:21:37.258Z,3.90
2018-05-29T18:24:04.756Z,4.30
2018-05-29T18:26:32.253Z,4.43
2018-05-29T18:28:59.755Z,4.37
2018-05-29T18:31:27.272Z,3.90
2018-05-29T18:33:54.785Z,4.40
2018-05-29T18:36:22.307Z,4.47
2018-05-29T18:38:50.054Z,4.37
2018-05-29T18:41:17.560Z,5.33
2018-05-29T18:43:45.084Z,9.13
2018-05-29T18:46:12.608Z,4.90
2018-05-29T18:48:40.120Z,4.80
2018-05-29T18:51:07.741Z,5.83
2018-05-29T18:53:35.239Z,5.47
2018-05-29T18:56:02.805Z,5.43
2018-05-29T18:58:30.396Z,5.50
2018-05-29T19:00:57.938Z,4.90
2018-05-29T19:03:25.470Z,5.10
2018-05-29T19:05:53.843Z,5.40
2018-05-29T19:08:21.423Z,5.70
2018-05-29T19:10:48.964Z,6.03
2018-05-29T19:13:16.478Z,5.90
2018-05-29T19:15:44.030Z,4.83
2018-05-29T19:18:11.544Z,5.00
2018-05-29T19:20:39.043Z,5.57
2018-05-29T19:23:06.674Z,5.40
2018-05-29T19:25:34.190Z,5.13
2018-05-29T19:28:01.747Z,5.17
2018-05-29T19:30:29.337Z,4.83
2018-05-29T19:32:56.855Z,8.40
2018-05-29T19:35:24.352Z,5.67
2018-05-29T19:37:51.877Z,6.60
2018-05-29T19:40:19.384Z,5.10
2018-05-29T19:42:46.894Z,6.20
2018-05-29T19:45:14.415Z,6.10
2018-05-29T19:47:41.989Z,5.90
2018-05-29T19:50:09.503Z,5.90
2018-05-29T19:52:37.027Z,6.47
2018-05-29T19:55:04.537Z,6.43
2018-05-29T19:57:32.031Z,6.53
2018-05-29T19:59:59.540Z,5.37
2018-05-29T20:02:27.044Z,6.70
2018-05-29T20:04:54.571Z,5.33
2018-05-29T20:07:22.117Z,5.70
2018-05-29T20:09:49.631Z,5.60
2018-05-29T20:12:17.271Z,5.30
2018-05-29T20:14:44.711Z,4.67
2018-05-29T20:17:12.233Z,5.10
2018-05-29T20:19:39.731Z,4.27
2018-05-29T20:22:08.203Z,4.63
2018-05-29T20:24:35.720Z,4.67
2018-05-29T20:27:03.309Z,4.67
2018-05-29T20:29:31.340Z,4.13
2018-05-29T20:31:58.860Z,4.53
2018-05-29T20:34:26.356Z,4.30
2018-05-29T20:36:54.556Z,4.27
2018-05-29T20:39:22.116Z,4.27
2018-05-29T20:41:49.614Z,4.10
2018-05-29T20:44:17.205Z,4.37
2018-05-29T20:46:44.720Z,4.20
2018-05-29T20:49:12.282Z,4.13
2018-05-29T20:51:39.801Z,4.50
2018-05-29T20:54:07.348Z,3.90
2018-05-29T20:56:34.878Z,3.83
2018-05-29T20:59:02.431Z,4.30
2018-05-29T21:01:29.939Z,6.10
2018-05-29T21:03:57.447Z,4.60
2018-05-29T21:06:24.956Z,4.70
2018-05-29T21:08:52.515Z,4.20
2018-05-29T21:11:20.010Z,4.20
2018-05-29T21:13:47.523Z,4.60
2018-05-29T21:16:15.091Z,4.40
2018-05-29T21:18:42.602Z,3.97
2018-05-29T21:21:10.845Z,3.90
2018-05-29T21:23:38.366Z,3.97
2018-05-29T21:26:05.880Z,4.37
2018-05-29T21:28:33.435Z,4.60
2018-05-29T21:31:00.987Z,4.60
2018-05-29T21:33:28.487Z,3.73
2018-05-29T21:35:56.033Z,4.27
2018-05-29T21:38:23.581Z,4.20
2018-05-29T21:40:51.089Z,4.37
2018-05-29T21:43:18.654Z,3.90
2018-05-29T21:45:46.172Z,4.20
2018-05-29T21:48:13.691Z,3.90
2018-05-29T21:50:41.211Z,4.07
2018-05-29T21:53:08.733Z,4.40
2018-05-29T21:55:36.278Z,3.83
2018-05-29T21:58:03.833Z,4.10
2018-05-29T22:00:31.346Z,4.17
2018-05-29T22:02:58.853Z,4.10
2018-05-29T22:05:26.371Z,4.43
2018-05-29T22:07:53.874Z,5.40
2018-05-29T22:10:21.378Z,5.63
2018-05-29T22:12:48.883Z,6.83
2018-05-29T22:15:18.841Z,24.23
2018-05-29T22:17:50.544Z,36.80
2018-05-29T22:20:18.078Z,18.50
2018-05-29T22:22:45.622Z,10.17
2018-05-29T22:25:13.130Z,8.60
2018-05-29T22:27:40.679Z,7.13
2018-05-29T22:30:08.254Z,14.73
2018-05-29T22:32:35.767Z,8.60
2018-05-29T22:35:03.311Z,7.03
2018-05-29T22:37:30.848Z,7.60
2018-05-29T22:39:58.375Z,7.13
2018-05-29T22:42:25.946Z,7.47
2018-05-29T22:44:53.447Z,6.67
2018-05-29T22:47:20.954Z,6.63
2018-05-29T22:49:48.504Z,7.97
2018-05-29T22:52:16.009Z,10.10
2018-05-29T22:54:43.575Z,12.57
2018-05-29T22:57:11.133Z,6.30
2018-05-29T22:59:38.631Z,6.07
2018-05-29T23:02:06.126Z,6.03
2018-05-29T23:04:33.627Z,6.37
2018-05-29T23:07:01.117Z,6.03
2018-05-29T23:09:28.622Z,5.60
2018-05-29T23:11:56.139Z,5.70
2018-05-29T23:14:23.652Z,5.93
2018-05-29T23:16:51.151Z,5.90
2018-05-29T23:19:18.654Z,5.90
2018-05-29T23:21:46.151Z,6.37
2018-05-29T23:24:13.668Z,6.70
2018-05-29T23:26:41.170Z,6.57
2018-05-29T23:29:08.673Z,6.17
2018-05-29T23:31:36.176Z,5.80
2018-05-29T23:34:03.675Z,6.10
2018-05-29T23:36:31.188Z,5.90
2018-05-29T23:38:58.694Z,6.00
2018-05-29T23:41:26.199Z,5.80
2018-05-29T23:43:54.571Z,5.77
2018-05-29T23:46:22.074Z,5.67
2018-05-29T23:48:49.570Z,5.23
2018-05-29T23:51:17.064Z,5.90
2018-05-29T23:53:44.569Z,5.90
2018-05-29T23:56:12.143Z,5.90
2018-05-29T23:58:39.655Z,5.83
